Time;durP1;ratioP1;P1;durP2;ratioP2;P2;SDS_P1;SDS_P2;PMS_P1;PMS_P2;Temp;Humidity;BMP_temperature;BMP_pressure;BME280_temperature;BME280_humidity;BME280_pressure;Samples;Min_cycle;Max_cycle;Signal;HPM_P1;HPM_P2
2023/12/06 00:00:22;;;;;;;246.73;86.13;;;6.90;99.90;;;;;;5010994;28;20560;-81
2023/12/06 00:02:49;;;;;;;229.25;81.85;;;6.80;99.90;;;;;;5029021;28;20037;-81
2023/12/06 00:05:15;;;;;;;245.63;86.20;;;6.70;99.90;;;;;;5029077;28;20125;-81
2023/12/06 00:07:41;;;;;;;222.95;80.68;;;6.70;99.90;;;;;;5028574;28;20068;-81
2023/12/06 00:10:07;;;;;;;248.32;88.57;;;6.50;99.90;;;;;;5010733;28;20037;-81
2023/12/06 00:12:33;;;;;;;261.17;92.97;;;6.50;99.90;;;;;;5028520;28;20022;-81
2023/12/06 00:14:58;;;;;;;262.05;93.00;;;6.50;99.90;;;;;;5028655;28;20152;-81
2023/12/06 00:17:24;;;;;;;264.50;93.63;;;6.40;99.90;;;;;;5028577;28;20029;-81
2023/12/06 00:19:50;;;;;;;263.08;93.72;;;6.40;99.90;;;;;;5028750;28;20386;-80
2023/12/06 00:22:15;;;;;;;220.80;81.15;;;6.30;99.90;;;;;;5029127;28;20025;-81
2023/12/06 00:24:41;;;;;;;254.90;90.45;;;6.20;99.90;;;;;;5028188;28;20029;-81
2023/12/06 00:27:07;;;;;;;260.65;93.70;;;6.20;99.90;;;;;;5028335;28;20033;-81
2023/12/06 00:29:33;;;;;;;108.07;43.85;;;6.10;99.90;;;;;;5028011;28;20121;-81
2023/12/06 00:31:58;;;;;;;247.10;89.22;;;6.10;99.90;;;;;;5028672;28;20021;-81
2023/12/06 00:34:24;;;;;;;251.70;89.93;;;6.10;99.90;;;;;;5032101;28;20084;-81
2023/12/06 00:36:49;;;;;;;231.43;84.00;;;6.00;99.90;;;;;;5032912;28;20033;-81
2023/12/06 00:39:15;;;;;;;253.32;90.85;;;6.00;99.90;;;;;;5031973;28;20013;-81
2023/12/06 00:41:41;;;;;;;259.45;91.93;;;5.90;99.90;;;;;;5031891;28;20048;-81
2023/12/06 00:44:07;;;;;;;253.68;91.60;;;5.90;99.90;;;;;;5013513;28;20588;-81
2023/12/06 00:46:33;;;;;;;266.40;95.80;;;5.80;99.90;;;;;;5032043;28;20037;-81
2023/12/06 00:48:59;;;;;;;242.38;88.00;;;5.80;99.90;;;;;;5013495;28;20400;-81
2023/12/06 00:51:27;;;;;;;242.68;88.63;;;5.70;99.90;;;;;;5031868;28;20043;-81
2023/12/06 00:53:52;;;;;;;16.20;14.38;;;5.70;99.90;;;;;;5033298;28;20020;-81
2023/12/06 00:56:18;;;;;;;10.73;9.55;;;5.70;99.90;;;;;;5039303;28;20025;-80
2023/12/06 00:58:44;;;;;;;6.45;5.82;;;5.70;99.90;;;;;;5031836;28;20021;-81
2023/12/06 01:01:11;;;;;;;15.00;12.18;;;3.10;99.90;;;;;;5031022;28;20029;-81
2023/12/06 01:03:37;;;;;;;16.27;12.15;;;3.70;99.90;;;;;;5031325;28;20034;-81
2023/12/06 01:06:03;;;;;;;12.15;7.05;;;5.90;99.90;;;;;;5031624;28;20096;-81
2023/12/06 01:08:29;;;;;;;42.17;31.73;;;5.60;99.90;;;;;;5031625;28;20505;-81
2023/12/06 01:10:54;;;;;;;40.10;31.75;;;5.90;99.90;;;;;;5031373;28;20489;-80
2023/12/06 01:13:20;;;;;;;46.33;34.03;;;5.60;99.90;;;;;;5032000;28;20049;-81
2023/12/06 01:15:45;;;;;;;40.00;30.00;;;5.60;99.90;;;;;;5031654;28;20033;-81
2023/12/06 01:18:11;;;;;;;36.80;28.27;;;5.60;99.90;;;;;;5030971;28;20792;-81
2023/12/06 01:20:38;;;;;;;65.97;40.63;;;4.40;99.90;;;;;;5030953;28;20417;-81
2023/12/06 01:23:04;;;;;;;65.18;34.85;;;5.70;99.90;;;;;;5031256;28;20026;-81
2023/12/06 01:25:32;;;;;;;79.47;40.50;;;5.80;99.90;;;;;;5031034;28;20052;-81
2023/12/06 01:27:58;;;;;;;97.68;49.97;;;5.80;99.90;;;;;;5030998;28;20556;-81
2023/12/06 01:30:24;;;;;;;5.95;4.18;;;5.90;99.90;;;;;;5030375;28;20124;-81
2023/12/06 01:32:49;;;;;;;94.68;49.08;;;5.80;99.90;;;;;;5031893;28;20025;-81
2023/12/06 01:35:15;;;;;;;106.28;50.95;;;5.70;99.90;;;;;;5013415;28;20033;-81
2023/12/06 01:37:40;;;;;;;131.05;58.28;;;5.70;99.90;;;;;;5030709;28;20033;-81
2023/12/06 01:40:06;;;;;;;260.10;49.47;;;3.90;99.90;;;;;;5031036;28;20370;-81
2023/12/06 01:42:32;;;;;;;166.05;66.93;;;5.50;99.90;;;;;;5030731;28;20515;-81
2023/12/06 01:44:58;;;;;;;170.57;67.93;;;5.50;99.90;;;;;;5012202;28;20033;-81
2023/12/06 01:47:26;;;;;;;171.30;67.50;;;5.60;99.90;;;;;;5030975;28;20120;-81
2023/12/06 01:49:54;;;;;;;188.02;68.95;;;5.60;99.90;;;;;;5013741;28;20029;-81
2023/12/06 01:52:21;;;;;;;181.82;71.03;;;5.50;99.90;;;;;;5038328;28;20033;-81
2023/12/06 01:54:47;;;;;;;184.00;71.72;;;5.40;99.90;;;;;;5041138;28;20032;-81
2023/12/06 01:57:12;;;;;;;191.50;73.18;;;5.40;99.90;;;;;;5030091;28;20108;-81
2023/12/06 01:59:39;;;;;;;212.70;80.35;;;5.30;99.90;;;;;;5030407;28;20107;-81
2023/12/06 02:02:05;;;;;;;218.82;81.40;;;5.40;99.90;;;;;;5030557;28;20135;-81
2023/12/06 02:04:33;;;;;;;214.35;80.32;;;4.80;99.90;;;;;;5030262;28;20489;-81
2023/12/06 02:06:59;;;;;;;206.07;78.13;;;5.30;99.90;;;;;;5030178;28;20025;-83
2023/12/06 02:09:27;;;;;;;202.43;76.63;;;5.30;99.90;;;;;;5030812;28;20030;-81
2023/12/06 02:11:53;;;;;;;107.90;52.17;;;5.20;99.90;;;;;;5013371;28;20420;-81
2023/12/06 02:14:19;;;;;;;116.80;53.88;;;5.10;99.90;;;;;;5030388;28;20029;-81
2023/12/06 02:16:45;;;;;;;209.75;80.10;;;5.10;99.90;;;;;;5030018;28;20965;-80
2023/12/06 02:19:22;;;;;;;229.02;84.82;;;5.00;99.90;;;;;;5030200;28;20056;-81
2023/12/06 02:21:49;;;;;;;226.57;84.38;;;5.80;99.90;;;;;;5029677;28;20021;-81
2023/12/06 02:24:15;;;;;;;236.70;89.95;;;2.10;99.90;;;;;;5030169;28;20030;-81
2023/12/06 02:26:40;;;;;;;213.43;81.38;;;4.90;99.90;;;;;;5029769;28;20029;-81
2023/12/06 02:29:06;;;;;;;220.10;83.18;;;4.90;99.90;;;;;;5029301;28;20033;-81
2023/12/06 02:31:32;;;;;;;223.95;83.90;;;5.00;99.90;;;;;;5029963;28;20091;-81
2023/12/06 02:34:06;;;;;;;215.38;79.38;;;4.90;99.90;;;;;;5029496;28;20386;-81
2023/12/06 02:36:33;;;;;;;228.35;84.90;;;4.80;99.90;;;;;;5029968;28;20082;-81
2023/12/06 02:38:59;;;;;;;230.27;84.93;;;4.70;99.90;;;;;;5029716;28;20013;-81
2023/12/06 02:41:27;;;;;;;213.68;79.15;;;4.70;99.90;;;;;;5030008;28;20026;-81
2023/12/06 02:43:52;;;;;;;213.48;81.30;;;4.70;99.90;;;;;;5030812;28;20025;-81
2023/12/06 02:46:18;;;;;;;230.07;83.95;;;4.60;99.90;;;;;;5029794;28;20033;-81
2023/12/06 02:48:43;;;;;;;227.65;86.18;;;4.50;99.90;;;;;;5029749;28;20061;-81
2023/12/06 02:51:09;;;;;;;228.50;84.95;;;4.60;99.90;;;;;;5029509;28;20513;-80
2023/12/06 02:53:34;;;;;;;233.27;87.88;;;4.60;99.90;;;;;;5028753;28;20024;-81
2023/12/06 02:56:00;;;;;;;234.82;88.20;;;4.60;99.90;;;;;;5029310;28;20026;-81
2023/12/06 02:58:26;;;;;;;232.15;87.45;;;4.60;99.90;;;;;;5030431;28;20108;-81
2023/12/06 03:00:51;;;;;;;234.77;87.70;;;4.40;99.90;;;;;;5029069;28;20029;-80
2023/12/06 03:03:17;;;;;;;263.35;85.82;;;8.20;99.90;;;;;;5029133;28;20045;-81
2023/12/06 03:05:42;;;;;;;240.80;89.63;;;4.50;99.90;;;;;;5028955;28;20454;-81
2023/12/06 03:08:08;;;;;;;239.07;89.47;;;4.50;99.90;;;;;;5029137;28;20025;-81
2023/12/06 03:10:34;;;;;;;250.60;92.30;;;4.50;99.90;;;;;;5028988;28;20033;-80
2023/12/06 03:13:00;;;;;;;233.27;87.75;;;4.50;99.90;;;;;;5028979;28;20029;-80
2023/12/06 03:15:25;;;;;;;246.95;92.50;;;4.50;99.90;;;;;;5030320;28;20027;-81
2023/12/06 03:17:51;;;;;;;247.13;90.85;;;4.50;99.90;;;;;;5028807;28;20029;-81
2023/12/06 03:20:17;;;;;;;220.68;83.28;;;4.60;99.90;;;;;;5028857;28;20029;-81
2023/12/06 03:22:43;;;;;;;229.05;87.32;;;4.50;99.90;;;;;;5028954;28;20100;-81
2023/12/06 03:25:08;;;;;;;236.68;89.68;;;4.50;99.90;;;;;;5010953;28;20080;-81
2023/12/06 03:27:34;;;;;;;198.85;78.05;;;4.50;99.90;;;;;;5029094;28;20080;-81
2023/12/06 03:30:00;;;;;;;217.77;83.10;;;4.50;99.90;;;;;;5028362;28;20087;-81
2023/12/06 03:32:25;;;;;;;219.82;83.63;;;4.50;99.90;;;;;;5011731;28;20389;-81
2023/12/06 03:34:51;;;;;;;192.65;75.45;;;1.80;99.90;;;;;;5028536;28;20033;-81
2023/12/06 03:37:16;;;;;;;219.18;84.88;;;4.40;99.90;;;;;;5027488;28;20037;-82
2023/12/06 03:39:42;;;;;;;206.88;79.97;;;4.50;99.90;;;;;;5028337;28;20481;-81
2023/12/06 03:42:08;;;;;;;217.70;83.55;;;4.40;99.90;;;;;;5022034;28;20036;-83
2023/12/06 03:44:33;;;;;;;225.07;85.25;;;4.40;99.90;;;;;;5009245;28;20026;-81
2023/12/06 03:46:59;;;;;;;223.63;85.03;;;4.40;99.90;;;;;;5028087;28;20532;-81
2023/12/06 03:49:24;;;;;;;203.57;77.10;;;1.80;99.90;;;;;;5025790;28;20034;-83
2023/12/06 03:51:50;;;;;;;209.00;80.35;;;1.60;99.90;;;;;;5027952;28;20524;-80
2023/12/06 03:54:16;;;;;;;215.45;82.05;;;1.40;99.90;;;;;;5028803;28;20084;-81
2023/12/06 03:56:41;;;;;;;178.85;71.60;;;4.40;99.90;;;;;;5011023;28;20477;-80
2023/12/06 03:59:07;;;;;;;182.65;72.95;;;4.30;99.90;;;;;;5015123;28;20021;-86
2023/12/06 04:01:33;;;;;;;201.85;78.40;;;3.00;99.90;;;;;;5017221;28;20033;-83
2023/12/06 04:03:58;;;;;;;209.10;80.57;;;4.30;99.90;;;;;;5026884;28;20033;-82
2023/12/06 04:06:24;;;;;;;210.18;81.03;;;4.30;99.90;;;;;;5024698;28;20032;-82
2023/12/06 04:08:49;;;;;;;201.40;79.70;;;4.30;99.90;;;;;;5031808;28;20026;-81
2023/12/06 04:11:15;;;;;;;205.35;79.47;;;4.30;99.90;;;;;;5032364;28;20029;-83
2023/12/06 04:13:40;;;;;;;203.10;79.07;;;4.30;99.90;;;;;;5014486;28;20481;-81
2023/12/06 04:16:07;;;;;;;197.82;76.63;;;4.30;99.90;;;;;;5031920;28;20026;-83
2023/12/06 04:18:33;;;;;;;209.52;80.68;;;4.30;99.90;;;;;;5031995;28;20028;-80
2023/12/06 04:20:58;;;;;;;207.35;80.53;;;4.20;99.90;;;;;;5032603;28;20034;-82
2023/12/06 04:23:24;;;;;;;203.88;79.60;;;1.50;99.90;;;;;;5031323;28;20023;-82
2023/12/06 04:25:49;;;;;;;211.82;82.22;;;4.20;99.90;;;;;;5032412;28;20388;-82
2023/12/06 04:28:15;;;;;;;208.25;81.70;;;4.70;99.90;;;;;;5030566;28;20108;-83
2023/12/06 04:30:40;;;;;;;213.85;84.18;;;4.20;99.90;;;;;;5030930;28;20044;-82
2023/12/06 04:33:06;;;;;;;210.32;82.00;;;4.30;99.90;;;;;;5031078;28;20705;-81
2023/12/06 04:35:32;;;;;;;202.43;78.53;;;8.90;99.90;;;;;;5031846;28;20489;-80
2023/12/06 04:37:57;;;;;;;207.40;80.78;;;4.20;99.90;;;;;;5031741;28;20022;-83
2023/12/06 04:40:23;;;;;;;200.88;78.72;;;;;;;;;;5035442;28;20260;-81
2023/12/06 04:42:49;;;;;;;205.57;82.35;;;4.30;99.90;;;;;;5041628;28;20128;-83
2023/12/06 04:45:14;;;;;;;184.27;74.40;;;4.30;99.90;;;;;;5032050;28;20021;-82
2023/12/06 04:47:40;;;;;;;211.30;81.15;;;4.30;99.90;;;;;;5031916;28;20033;-83
2023/12/06 04:50:06;;;;;;;222.02;86.18;;;4.30;99.90;;;;;;5030743;28;20033;-82
2023/12/06 04:52:32;;;;;;;196.60;77.97;;;4.30;99.90;;;;;;5015037;28;20033;-83
2023/12/06 04:54:58;;;;;;;200.10;78.40;;;4.30;99.90;;;;;;5031338;28;20025;-83
2023/12/06 04:57:23;;;;;;;212.55;81.50;;;9.10;99.90;;;;;;5032032;28;20404;-83
2023/12/06 04:59:49;;;;;;;224.75;86.32;;;4.30;99.90;;;;;;5031908;28;20172;-81
2023/12/06 05:02:14;;;;;;;229.57;87.38;;;4.30;99.90;;;;;;5031729;28;20040;-84
2023/12/06 05:04:40;;;;;;;229.52;87.40;;;4.30;99.90;;;;;;5031412;28;20057;-82
2023/12/06 05:07:06;;;;;;;212.15;82.10;;;4.20;99.90;;;;;;5031632;28;20072;-80
2023/12/06 05:09:31;;;;;;;189.18;74.38;;;4.30;99.90;;;;;;5032422;28;20029;-81
2023/12/06 05:11:57;;;;;;;220.90;84.47;;;4.20;99.90;;;;;;5031264;28;20033;-81
2023/12/06 05:14:22;;;;;;;218.88;83.70;;;4.20;99.90;;;;;;5031616;28;20068;-83
2023/12/06 05:16:48;;;;;;;226.55;87.65;;;4.10;99.90;;;;;;5030094;28;20383;-83
2023/12/06 05:19:13;;;;;;;213.10;82.60;;;4.10;99.90;;;;;;5029949;28;20017;-82
2023/12/06 05:21:39;;;;;;;213.30;83.05;;;4.10;99.90;;;;;;5031352;28;20505;-85
2023/12/06 05:24:05;;;;;;;208.95;81.35;;;4.10;99.90;;;;;;5032046;28;20439;-83
2023/12/06 05:26:31;;;;;;;207.27;80.70;;;4.10;99.90;;;;;;5031959;28;20029;-83
2023/12/06 05:28:58;;;;;;;260.08;81.05;;;4.00;99.90;;;;;;5029480;28;20029;-83
2023/12/06 05:31:23;;;;;;;206.18;81.50;;;3.90;99.90;;;;;;5012855;28;20033;-81
2023/12/06 05:33:49;;;;;;;197.15;77.93;;;3.80;99.90;;;;;;5030929;28;20638;-81
2023/12/06 05:36:15;;;;;;;49.10;37.22;;;3.70;99.90;;;;;;5031158;28;20381;-84
2023/12/06 05:38:41;;;;;;;65.50;42.20;;;;;;;;;;5031110;28;20049;-81
2023/12/06 05:41:07;;;;;;;75.00;45.10;;;;;;;;;;5013456;28;20092;-80
2023/12/06 05:43:32;;;;;;;87.28;47.72;;;3.60;99.90;;;;;;5031511;28;20104;-81
2023/12/06 05:45:58;;;;;;;102.25;50.97;;;3.60;99.90;;;;;;5030980;28;20068;-81
2023/12/06 05:48:23;;;;;;;111.95;54.58;;;3.50;99.90;;;;;;5030993;28;20025;-81
2023/12/06 05:50:49;;;;;;;102.88;51.33;;;1.70;99.90;;;;;;5030724;28;20037;-82
2023/12/06 05:53:15;;;;;;;50.88;36.47;;;1.30;99.90;;;;;;5030875;28;20056;-81
2023/12/06 05:55:40;;;;;;;107.95;52.20;;;3.40;99.90;;;;;;5030813;28;20029;-82
2023/12/06 05:58:06;;;;;;;74.38;43.15;;;3.40;99.90;;;;;;5031586;28;20080;-81
2023/12/06 06:00:31;;;;;;;118.72;54.88;;;3.40;99.90;;;;;;5030719;28;20021;-82
2023/12/06 06:02:59;;;;;;;95.65;47.90;;;3.40;99.90;;;;;;5030615;28;20365;-82
2023/12/06 06:05:24;;;;;;;158.52;67.78;;;3.40;99.90;;;;;;5030603;28;20032;-81
2023/12/06 06:07:50;;;;;;;79.35;45.47;;;7.60;99.90;;;;;;5020738;28;20021;-82
2023/12/06 06:10:16;;;;;;;159.07;67.50;;;3.40;99.90;;;;;;5018359;28;20045;-82
2023/12/06 06:12:42;;;;;;;184.68;74.05;;;3.30;99.90;;;;;;5024949;28;20022;-81
2023/12/06 06:15:08;;;;;;;37.72;32.72;;;3.40;99.90;;;;;;5031864;28;20048;-81
2023/12/06 06:17:34;;;;;;;149.90;64.13;;;3.40;99.90;;;;;;5040918;28;20067;-81
2023/12/06 06:20:00;;;;;;;148.50;64.20;;;3.30;99.90;;;;;;5031635;28;20171;-82
2023/12/06 06:22:26;;;;;;;17.88;14.38;;;3.50;99.90;;;;;;5032071;28;20517;-82
2023/12/06 06:24:52;;;;;;;186.48;76.47;;;3.40;99.90;;;;;;5036979;28;20068;-81
2023/12/06 06:27:18;;;;;;;139.57;61.15;;;3.50;99.90;;;;;;5038258;28;20045;-82
2023/12/06 06:29:44;;;;;;;194.18;76.50;;;3.50;99.90;;;;;;5031013;28;20371;-81
2023/12/06 06:32:10;;;;;;;194.27;77.30;;;3.40;99.90;;;;;;5038295;28;20026;-81
2023/12/06 06:34:35;;;;;;;192.48;76.72;;;3.40;99.90;;;;;;5032175;28;20378;-81
2023/12/06 06:37:01;;;;;;;198.77;78.55;;;3.40;99.90;;;;;;5043505;28;20367;-82
2023/12/06 06:39:28;;;;;;;203.55;80.88;;;0.10;99.90;;;;;;5039402;28;20029;-81
2023/12/06 06:41:54;;;;;;;184.63;75.55;;;7.60;99.90;;;;;;5033991;28;20028;-82
2023/12/06 06:44:19;;;;;;;198.13;79.28;;;3.40;99.90;;;;;;5040179;28;20029;-82
2023/12/06 06:46:45;;;;;;;205.55;82.95;;;3.40;99.90;;;;;;5035909;28;20499;-81
2023/12/06 06:49:11;;;;;;;204.38;80.93;;;3.40;99.90;;;;;;5037045;28;20025;-81
2023/12/06 06:51:37;;;;;;;214.40;84.38;;;3.90;99.90;;;;;;5042884;28;20029;-82
2023/12/06 06:54:04;;;;;;;212.02;83.18;;;3.40;99.90;;;;;;5035017;28;20075;-82
2023/12/06 06:56:30;;;;;;;213.70;83.85;;;3.40;99.90;;;;;;5035678;28;20030;-82
2023/12/06 06:58:56;;;;;;;218.00;85.93;;;3.40;99.90;;;;;;5031780;28;20025;-81
2023/12/06 07:01:21;;;;;;;221.25;86.53;;;3.40;99.90;;;;;;5029252;28;20024;-82
2023/12/06 07:03:47;;;;;;;225.27;88.57;;;3.40;99.90;;;;;;5029379;28;20025;-81
2023/12/06 07:06:13;;;;;;;222.27;87.10;;;3.40;99.90;;;;;;5029551;28;20057;-81
2023/12/06 07:08:40;;;;;;;215.90;84.63;;;6.90;99.90;;;;;;5030340;28;20030;-81
2023/12/06 07:11:06;;;;;;;226.77;88.68;;;3.30;99.90;;;;;;5030245;28;20034;-81
2023/12/06 07:13:33;;;;;;;228.93;89.97;;;3.30;99.90;;;;;;5029431;28;20535;-81
2023/12/06 07:15:59;;;;;;;233.05;91.90;;;7.80;99.90;;;;;;5029356;28;20025;-81
2023/12/06 07:18:28;;;;;;;241.05;94.32;;;2.90;99.90;;;;;;5029242;28;20074;-81
2023/12/06 07:20:54;;;;;;;224.85;90.00;;;;;;;;;;5029539;28;20029;-84
2023/12/06 07:23:19;;;;;;;257.48;100.53;;;0.10;99.90;;;;;;5029148;28;20029;-81
2023/12/06 07:25:46;;;;;;;221.75;87.50;;;1.60;99.90;;;;;;5029148;28;20067;-80
2023/12/06 07:28:12;;;;;;;232.75;91.45;;;3.30;99.90;;;;;;5029179;28;20098;-79
2023/12/06 07:30:37;;;;;;;235.18;92.20;;;3.20;99.90;;;;;;5029838;28;20037;-81
2023/12/06 07:33:03;;;;;;;243.20;94.25;;;3.30;99.90;;;;;;5029128;28;20070;-80
2023/12/06 07:35:29;;;;;;;250.88;98.30;;;-0.20;99.90;;;;;;5029112;28;20037;-82
2023/12/06 07:37:54;;;;;;;248.15;96.45;;;1.00;99.90;;;;;;5029033;28;20029;-81
2023/12/06 07:40:21;;;;;;;250.88;97.55;;;0.80;99.90;;;;;;5029364;28;20508;-81
2023/12/06 07:42:47;;;;;;;240.23;93.68;;;;;;;;;;5028477;28;20051;-80
2023/12/06 07:45:13;;;;;;;238.57;92.85;;;;;;;;;;5029015;28;20030;-80
2023/12/06 07:47:41;;;;;;;245.98;95.38;;;0.80;99.90;;;;;;5029661;28;20017;-81
2023/12/06 07:50:07;;;;;;;;;;;3.30;99.90;;;;;;5030124;28;20048;-81
2023/12/06 07:52:33;;;;;;;242.27;96.80;;;3.30;99.90;;;;;;5028921;28;19915;-80
2023/12/06 07:55:00;;;;;;;250.23;98.95;;;-0.60;99.90;;;;;;5028791;28;20120;-81
2023/12/06 07:57:28;;;;;;;246.25;97.35;;;0.20;99.90;;;;;;5028873;28;20029;-80
2023/12/06 07:59:58;;;;;;;241.35;93.80;;;0.30;99.90;;;;;;5028880;28;20026;-80
2023/12/06 08:02:27;;;;;;;243.52;95.03;;;1.50;99.90;;;;;;5028760;28;20030;-81
2023/12/06 08:04:52;;;;;;;245.43;96.47;;;2.00;99.90;;;;;;5011104;28;20021;-80
2023/12/06 08:07:18;;;;;;;240.98;94.65;;;0.00;99.90;;;;;;5028794;28;20030;-80
2023/12/06 08:09:44;;;;;;;230.45;91.63;;;7.30;99.90;;;;;;5028775;28;20026;-80
2023/12/06 08:12:10;;;;;;;222.27;88.15;;;1.70;99.90;;;;;;5029463;28;20025;-81
2023/12/06 08:14:39;;;;;;;217.18;86.32;;;3.20;99.90;;;;;;5028648;28;20113;-86
2023/12/06 08:17:06;;;;;;;224.05;88.82;;;0.30;99.90;;;;;;5028377;28;20073;-81
2023/12/06 08:19:32;;;;;;;235.27;92.53;;;1.30;99.90;;;;;;5028682;28;20030;-82
2023/12/06 08:21:57;;;;;;;232.15;90.55;;;2.30;99.90;;;;;;5028639;28;20017;-80
2023/12/06 08:24:23;;;;;;;217.63;86.70;;;0.40;99.90;;;;;;5028663;28;20100;-81
2023/12/06 08:26:48;;;;;;;214.73;85.80;;;1.20;99.90;;;;;;5028533;28;20122;-82
2023/12/06 08:29:14;;;;;;;208.07;83.40;;;3.40;99.90;;;;;;5028939;28;20092;-80
2023/12/06 08:31:40;;;;;;;211.23;84.10;;;3.40;99.90;;;;;;5029382;28;20061;-80
2023/12/06 08:34:05;;;;;;;207.63;83.15;;;3.40;99.90;;;;;;5028595;28;20022;-79
2023/12/06 08:36:31;;;;;;;217.85;85.15;;;7.90;99.90;;;;;;5028528;28;20037;-79
2023/12/06 08:38:56;;;;;;;225.52;88.30;;;2.00;99.90;;;;;;5028496;28;20026;-80
2023/12/06 08:41:23;;;;;;;218.18;86.63;;;0.80;99.90;;;;;;5028378;28;20033;-80
2023/12/06 08:43:48;;;;;;;194.73;78.97;;;3.70;99.90;;;;;;5028237;28;20030;-80
2023/12/06 08:46:15;;;;;;;199.07;78.90;;;3.50;99.90;;;;;;5011529;28;20021;-81
2023/12/06 08:48:40;;;;;;;205.35;81.05;;;3.60;99.90;;;;;;5029241;28;20072;-81
2023/12/06 08:51:06;;;;;;;171.98;72.30;;;3.60;99.90;;;;;;5010538;28;20042;-81
2023/12/06 08:53:32;;;;;;;191.35;79.60;;;1.50;99.90;;;;;;5029861;28;20025;-80
2023/12/06 08:55:58;;;;;;;194.85;77.80;;;7.40;99.90;;;;;;5031984;28;20474;-80
2023/12/06 08:58:24;;;;;;;200.63;79.82;;;8.20;99.90;;;;;;5031850;28;20068;-80
2023/12/06 09:00:50;;;;;;;185.25;75.28;;;;;;;;;;5031822;28;20030;-80
2023/12/06 09:03:16;;;;;;;192.55;76.38;;;3.90;99.90;;;;;;5032358;28;20041;-86
2023/12/06 09:05:41;;;;;;;198.48;78.68;;;3.30;99.90;;;;;;5032644;28;20025;-80
2023/12/06 09:08:07;;;;;;;188.57;75.38;;;3.70;99.90;;;;;;5031806;28;20023;-80
2023/12/06 09:10:33;;;;;;;207.32;82.53;;;;;;;;;;5031575;28;20440;-80
2023/12/06 09:12:58;;;;;;;214.15;85.38;;;1.90;99.90;;;;;;5031551;28;20461;-80
2023/12/06 09:15:24;;;;;;;216.20;85.38;;;8.60;99.90;;;;;;5031700;28;20026;-80
2023/12/06 09:17:50;;;;;;;217.20;85.00;;;3.80;99.90;;;;;;5031615;28;20022;-79
2023/12/06 09:20:18;;;;;;;213.45;81.95;;;3.90;99.90;;;;;;5032330;28;20603;-80
2023/12/06 09:22:44;;;;;;;;;;;3.80;99.90;;;;;;5032672;28;20492;-80
2023/12/06 09:25:09;;;;;;;213.85;84.97;;;4.00;99.90;;;;;;5031469;28;19905;-80
2023/12/06 09:27:35;;;;;;;214.05;84.82;;;2.00;99.90;;;;;;5031330;28;20038;-80
2023/12/06 09:30:00;;;;;;;218.27;86.10;;;2.00;99.90;;;;;;5031241;28;20421;-80
2023/12/06 09:32:26;;;;;;;202.55;80.32;;;4.10;99.90;;;;;;5031293;28;20025;-80
2023/12/06 09:34:52;;;;;;;204.88;80.28;;;4.10;99.90;;;;;;5031185;28;20056;-80
2023/12/06 09:37:18;;;;;;;199.75;78.57;;;2.90;99.90;;;;;;5031615;28;20470;-80
2023/12/06 09:39:43;;;;;;;196.18;77.32;;;4.00;99.90;;;;;;5031987;28;20040;-80
2023/12/06 09:42:10;;;;;;;205.27;79.53;;;4.30;99.90;;;;;;5031021;28;20021;-80
2023/12/06 09:44:41;;;;;;;193.02;77.63;;;9.00;99.90;;;;;;5013266;28;20072;-80
2023/12/06 09:47:07;;;;;;;205.02;82.10;;;9.00;99.90;;;;;;5030962;28;20398;-80
2023/12/06 09:49:33;;;;;;;195.25;77.70;;;3.20;99.90;;;;;;5030750;28;20022;-80
2023/12/06 09:52:18;;;;;;;189.60;76.30;;;4.30;99.90;;;;;;5030868;28;20037;-80
2023/12/06 09:54:44;;;;;;;190.43;76.10;;;;;;;;;;5031694;28;20084;-80
2023/12/06 09:57:13;;;;;;;186.95;74.90;;;4.40;99.90;;;;;;5030809;28;20030;-80
2023/12/06 09:59:40;;;;;;;;;;;4.30;99.90;;;;;;5031186;28;20496;-80
2023/12/06 10:02:06;;;;;;;172.18;72.22;;;0.80;99.90;;;;;;5030620;28;19919;-80
2023/12/06 10:04:33;;;;;;;198.73;79.20;;;3.40;99.90;;;;;;5030141;28;20033;-80
2023/12/06 10:06:59;;;;;;;171.70;71.30;;;4.50;99.90;;;;;;5030584;28;20049;-80
2023/12/06 10:09:25;;;;;;;177.05;72.07;;;4.50;99.90;;;;;;5012805;28;20417;-80
2023/12/06 10:11:50;;;;;;;170.00;68.93;;;4.60;99.90;;;;;;5030521;28;20494;-80
2023/12/06 10:14:20;;;;;;;179.15;71.88;;;4.70;99.90;;;;;;5031403;28;20100;-80
2023/12/06 10:16:47;;;;;;;176.98;71.10;;;3.80;99.90;;;;;;5013488;28;20052;-80
2023/12/06 10:19:21;;;;;;;169.52;69.45;;;3.90;99.90;;;;;;5030302;28;20017;-80
2023/12/06 10:21:51;;;;;;;185.70;73.38;;;4.90;99.90;;;;;;5031247;28;20057;-80
2023/12/06 10:24:16;;;;;;;179.52;72.55;;;5.00;99.90;;;;;;5031091;28;20025;-80
2023/12/06 10:26:42;;;;;;;159.00;66.60;;;5.40;99.90;;;;;;5030298;28;20492;-80
2023/12/06 10:29:08;;;;;;;186.77;74.88;;;5.20;99.90;;;;;;5030223;28;20024;-80
2023/12/06 10:31:42;;;;;;;177.40;72.53;;;5.30;99.90;;;;;;5030194;28;20041;-80
2023/12/06 10:34:08;;;;;;;181.70;74.50;;;5.40;99.90;;;;;;5030083;28;20053;-80
2023/12/06 10:36:36;;;;;;;159.93;70.50;;;5.50;99.90;;;;;;5030141;28;20522;-80
2023/12/06 10:39:04;;;;;;;175.70;75.10;;;5.50;99.90;;;;;;5030061;28;20114;-80
2023/12/06 10:41:31;;;;;;;195.38;78.72;;;5.60;99.90;;;;;;5030105;28;20097;-80
2023/12/06 10:43:59;;;;;;;198.88;79.78;;;5.70;99.90;;;;;;5029954;28;20501;-80
2023/12/06 10:46:26;;;;;;;84.82;41.45;;;5.70;99.90;;;;;;5029924;28;20017;-82
2023/12/06 10:48:53;;;;;;;170.23;71.35;;;5.80;99.90;;;;;;5012419;28;20128;-81
2023/12/06 10:51:20;;;;;;;168.40;69.38;;;5.80;99.90;;;;;;5030516;28;20586;-81
2023/12/06 10:53:47;;;;;;;177.82;70.97;;;5.90;99.90;;;;;;5029740;28;20029;-81
2023/12/06 10:56:15;;;;;;;165.97;67.63;;;5.90;99.90;;;;;;5029680;28;20381;-80
2023/12/06 10:58:41;;;;;;;153.35;65.00;;;6.90;99.90;;;;;;5029723;28;20032;-81
2023/12/06 11:01:09;;;;;;;166.18;68.45;;;6.00;99.90;;;;;;5029434;28;20071;-80
2023/12/06 11:03:35;;;;;;;168.27;69.47;;;;;;;;;;5029676;28;20048;-80
2023/12/06 11:06:12;;;;;;;201.57;77.38;;;6.10;99.90;;;;;;5029464;28;20029;-80
2023/12/06 11:09:21;;;;;;;198.38;75.85;;;6.10;99.90;;;;;;5029635;28;20033;-81
2023/12/06 11:12:05;;;;;;;190.07;73.53;;;6.10;99.90;;;;;;5029500;28;20512;-81
2023/12/06 11:14:39;;;;;;;196.13;75.95;;;6.20;99.90;;;;;;5029513;28;20026;-80
2023/12/06 11:17:28;;;;;;;153.43;64.90;;;6.20;99.90;;;;;;5028644;28;20033;-81
2023/12/06 11:19:54;;;;;;;177.15;71.15;;;6.20;99.90;;;;;;5029377;28;20025;-80
2023/12/06 11:22:23;;;;;;;186.93;73.78;;;5.40;99.90;;;;;;5030147;28;20018;-81
2023/12/06 11:24:49;;;;;;;;;;;6.00;99.90;;;;;;5030574;28;20829;-81
2023/12/06 11:27:14;;;;;;;207.32;78.38;;;6.40;99.90;;;;;;5029261;28;19912;-81
2023/12/06 11:29:40;;;;;;;167.77;69.78;;;6.40;99.90;;;;;;5029136;28;20520;-80
2023/12/06 11:32:12;;;;;;;186.43;74.10;;;6.80;99.90;;;;;;5029107;28;20037;-80
2023/12/06 11:34:40;;;;;;;195.00;76.32;;;6.50;99.90;;;;;;5029116;28;20135;-81
2023/12/06 11:37:14;;;;;;;185.05;73.43;;;6.60;99.90;;;;;;5028941;28;20490;-80
2023/12/06 11:39:40;;;;;;;130.75;59.03;;;6.80;99.90;;;;;;5029144;28;20036;-81
2023/12/06 11:42:08;;;;;;;160.02;65.45;;;6.70;99.90;;;;;;5028972;28;20421;-80
2023/12/06 11:44:34;;;;;;;149.10;63.95;;;6.30;99.90;;;;;;5029024;28;20021;-81
2023/12/06 11:47:04;;;;;;;157.90;66.75;;;6.80;99.90;;;;;;5028876;28;20021;-84
2023/12/06 11:49:30;;;;;;;148.95;64.15;;;6.80;99.90;;;;;;5028898;28;20037;-81
2023/12/06 11:52:02;;;;;;;126.05;56.75;;;6.90;99.90;;;;;;5028618;28;20034;-80
2023/12/06 11:54:28;;;;;;;146.32;62.58;;;7.00;99.90;;;;;;5028922;28;20048;-80
2023/12/06 11:57:07;;;;;;;146.52;62.33;;;7.80;99.90;;;;;;5029794;28;20033;-81
2023/12/06 11:59:34;;;;;;;159.77;66.15;;;7.50;99.90;;;;;;5028806;28;20028;-80
2023/12/06 12:02:00;;;;;;;145.13;61.85;;;7.10;99.90;;;;;;5028734;28;20071;-80
2023/12/06 12:04:26;;;;;;;157.63;64.38;;;7.20;99.90;;;;;;5028850;28;20108;-81
2023/12/06 12:06:53;;;;;;;126.38;56.83;;;7.20;99.90;;;;;;5029604;28;20036;-81
2023/12/06 12:09:20;;;;;;;137.50;58.95;;;7.30;99.90;;;;;;5028807;28;20071;-81
2023/12/06 12:11:46;;;;;;;150.65;61.65;;;10.30;99.90;;;;;;5028758;28;20478;-81
2023/12/06 12:14:11;;;;;;;151.02;63.33;;;6.50;99.90;;;;;;5028638;28;20024;-81
2023/12/06 12:16:39;;;;;;;29.85;18.38;;;7.30;99.90;;;;;;5028764;28;20034;-81
2023/12/06 12:19:06;;;;;;;118.63;55.43;;;7.70;99.90;;;;;;5028655;28;20378;-80
2023/12/06 12:21:32;;;;;;;125.80;57.67;;;7.50;99.90;;;;;;5028621;28;20260;-80
2023/12/06 12:24:00;;;;;;;123.55;55.72;;;6.70;99.90;;;;;;5028653;28;20036;-81
2023/12/06 12:26:27;;;;;;;85.95;45.83;;;7.50;99.90;;;;;;5029501;28;20549;-80
2023/12/06 12:28:52;;;;;;;114.13;53.58;;;7.60;99.90;;;;;;5031521;28;20037;-81